Time;durP1;ratioP1;P1;durP2;ratioP2;P2;SDS_P1;SDS_P2;PMS_P1;PMS_P2;Temp;Humidity;BMP_temperature;BMP_pressure;BME280_temperature;BME280_humidity;BME280_pressure;Samples;Min_cycle;Max_cycle;Signal;HPM_P1;HPM_P2
2023/06/09 00:00:56;;;;;;;;;;;;;;;;;;5078027;28;20278;-90
2023/06/09 00:03:22;;;;;;;;;;;;;;;;;;5061397;28;19928;-88
2023/06/09 00:05:48;;;;;;;;;;;;;;;;;;5078169;28;20388;-89
2023/06/09 00:08:14;;;;;;;;;;;;;;;;;;5061417;28;19927;-89
2023/06/09 00:10:40;;;;;;;;;;;;;;;;;;5061023;28;20389;-88
2023/06/09 00:13:05;;;;;;;;;;;;;;;;;;5061565;28;19920;-88
2023/06/09 00:15:31;;;;;;;;;;;;;;;;;;5061249;28;19920;-90
2023/06/09 00:17:57;;;;;;;;;;;;;;;;;;5061099;28;19920;-89
2023/06/09 00:20:24;;;;;;;;;;;;;;;;;;5077725;28;19927;-90
2023/06/09 00:22:51;;;;;;;;;;;;;;;;;;5061166;28;20213;-90
2023/06/09 00:25:20;;;;;;;;;;;;;;;;;;5077516;28;19999;-90
2023/06/09 00:27:46;;;;;;;;;;;;;;;;;;5060917;28;19942;-89
2023/06/09 00:30:11;;;;;;;;;;;;;;;;;;5077243;28;20393;-90
2023/06/09 00:32:37;;;;;;;;;;;;;;;;;;5060771;28;20300;-90
2023/06/09 00:35:03;;;;;;;;;;;;;;;;;;5077254;28;19970;-90
2023/06/09 00:37:30;;;;;;;;;;;;;;;;;;5060462;28;19924;-90
2023/06/09 00:39:57;;;;;;;;;;;;;;;;;;5077300;28;19955;-90
2023/06/09 00:42:23;;;;;;;;;;;;;;;;;;5060592;28;19924;-89
2023/06/09 00:44:49;;;;;;;;;;;;;;;;;;5060632;28;19927;-89
2023/06/09 00:47:15;;;;;;;;;;;;;;;;;;5077533;28;19924;-89
2023/06/09 00:49:40;;;;;;;;;;;;;;;;;;5060364;28;19924;-88
2023/06/09 00:52:06;;;;;;;;;;;;;;;;;;5077047;28;19924;-89
2023/06/09 00:54:32;;;;;;;;;;;;;;;;;;5077205;28;20438;-89
2023/06/09 00:56:58;;;;;;;;;;;;;;;;;;5060124;28;19920;-90
2023/06/09 00:59:25;;;;;;;;;;;;;;;;;;5060328;28;20292;-91
2023/06/09 01:01:51;;;;;;;;;;;;;;;;;;5076857;28;19931;-90
2023/06/09 01:04:18;;;;;;;;;;;;;;;;;;5076944;28;19920;-90
2023/06/09 01:06:45;;;;;;;;;;;;;;;;;;5060271;28;20073;-91
2023/06/09 01:09:11;;;;;;;;;;;;;;;;;;5059959;28;19947;-90
2023/06/09 01:11:37;;;;;;;;;;;;;;;;;;5060047;28;19924;-89
2023/06/09 01:14:03;;;;;;;;;;;;;;;;;;5076404;28;19920;-90
2023/06/09 01:16:28;;;;;;;;;;;;;;;;;;5061271;28;20376;-89
2023/06/09 01:18:54;;;;;;;;;;;;;;;;;;5113210;28;20011;-90
2023/06/09 01:21:20;;;;;;;;;;;;;;;;;;5096613;28;19976;-90
2023/06/09 01:23:46;;;;;;;;;;;;;;;;;;5113768;28;19927;-90
2023/06/09 01:26:12;;;;;;;;;;;;;;;;;;5113751;28;19919;-89
2023/06/09 01:28:38;;;;;;;;;;;;;;;;;;5112610;28;19962;-90
2023/06/09 01:31:04;;;;;;;;;;;;;;;;;;5113514;28;19920;-89
2023/06/09 01:33:30;;;;;;;;;;;;;;;;;;5096216;28;19924;-90
2023/06/09 01:35:56;;;;;;;;;;;;;;;;;;5113465;28;20355;-89
2023/06/09 01:38:22;;;;;;;;;;;;;;;;;;5113658;28;19920;-88
2023/06/09 01:40:48;;;;;;;;;;;;;;;;;;5103092;28;19924;-89
2023/06/09 01:43:14;;;;;;;;;;;;;;;;;;5093117;28;20446;-90
2023/06/09 01:45:40;;;;;;;;;;;;;;;;;;5093213;28;19921;-90
2023/06/09 01:48:05;;;;;;;;;;;;;;;;;;5076227;28;19920;-91
2023/06/09 01:50:31;;;;;;;;;;;;;;;;;;5092733;28;19982;-90
2023/06/09 01:52:57;;;;;;;;;;;;;;;;;;5092594;28;19959;-90
2023/06/09 01:55:23;;;;;;;;;;;;;;;;;;5092837;28;19957;-90
2023/06/09 01:57:50;;;;;;;;;;;;;;;;;;5092899;28;20371;-91
2023/06/09 02:00:16;;;;;;;;;;;;;;;;;;5092743;28;19920;-91
2023/06/09 02:02:42;;;;;;;;;;;;;;;;;;5101499;28;19923;-90
2023/06/09 02:05:08;;;;;;;;;;;;;;;;;;5113090;28;19972;-91
2023/06/09 02:07:34;;;;;;;;;;;;;;;;;;5113046;28;19920;-91
2023/06/09 02:10:00;;;;;;;;;;;;;;;;;;5077389;28;19924;-90
2023/06/09 02:12:26;;;;;;;;;;;;;;;;;;5058972;28;19920;-90
2023/06/09 02:14:52;;;;;;;;;;;;;;;;;;5075618;28;20411;-89
2023/06/09 02:17:18;;;;;;;;;;;;;;;;;;5059062;28;19920;-89
2023/06/09 02:19:45;;;;;;;;;;;;;;;;;;5075187;28;20342;-91
2023/06/09 02:22:11;;;;;;;;;;;;;;;;;;5058883;28;19936;-90
2023/06/09 02:24:37;;;;;;;;;;;;;;;;;;5058541;28;19920;-91
2023/06/09 02:27:03;;;;;;;;;;;;;;;;;;5075463;28;20010;-90
2023/06/09 02:29:29;;;;;;;;;;;;;;;;;;5075423;28;19924;-89
2023/06/09 02:31:55;;;;;;;;;;;;;;;;;;5058385;28;19973;-91
2023/06/09 02:34:22;;;;;;;;;;;;;;;;;;5075391;28;20355;-90
2023/06/09 02:36:49;;;;;;;;;;;;;;;;;;5058571;28;20324;-90
2023/06/09 02:39:15;;;;;;;;;;;;;;;;;;5058560;28;19921;-91
2023/06/09 02:41:41;;;;;;;;;;;;;;;;;;5058396;28;19982;-90
2023/06/09 02:44:07;;;;;;;;;;;;;;;;;;5058540;28;19920;-90
2023/06/09 02:46:35;;;;;;;;;;;;;;;;;;5058408;28;19924;-90
2023/06/09 02:49:01;;;;;;;;;;;;;;;;;;5058343;28;19924;-90
2023/06/09 02:51:26;;;;;;;;;;;;;;;;;;5058445;28;19926;-91
2023/06/09 02:53:52;;;;;;;;;;;;;;;;;;5058307;28;19926;-91
2023/06/09 02:56:18;;;;;;;;;;;;;;;;;;5058396;28;19931;-90
2023/06/09 02:58:46;;;;;;;;;;;;;;;;;;5058192;28;19920;-90
2023/06/09 03:01:17;;;;;;;;;;;;;;;;;;5083616;28;19924;-88
2023/06/09 03:03:43;;;;;;;;;;;;;;;;;;5112374;28;19923;-91
2023/06/09 03:06:09;;;;;;;;;;;;;;;;;;5111889;28;20269;-90
2023/06/09 03:08:35;;;;;;;;;;;;;;;;;;5103341;28;19924;-91
2023/06/09 03:11:01;;;;;;;;;;;;;;;;;;5091570;28;19982;-90
2023/06/09 03:13:27;;;;;;;;;;;;;;;;;;5092027;28;19920;-90
2023/06/09 03:15:54;;;;;;;;;;;;;;;;;;5075255;28;19920;-90
2023/06/09 03:18:20;;;;;;;;;;;;;;;;;;5102931;28;19935;-91
2023/06/09 03:20:48;;;;;;;;;;;;;;;;;;5110232;28;19920;-92
2023/06/09 03:23:14;;;;;;;;;;;;;;;;;;5093336;28;19920;-90
2023/06/09 03:25:40;;;;;;;;;;;;;;;;;;5110048;28;19924;-90
2023/06/09 03:28:06;;;;;;;;;;;;;;;;;;5111937;28;20010;-90
2023/06/09 03:30:32;;;;;;;;;;;;;;;;;;5112173;28;20001;-91
2023/06/09 03:32:58;;;;;;;;;;;;;;;;;;5099497;28;19920;-90
2023/06/09 03:35:24;;;;;;;;;;;;;;;;;;5057953;28;19927;-91
2023/06/09 03:37:50;;;;;;;;;;;;;;;;;;5058380;28;20542;-90
2023/06/09 03:40:16;;;;;;;;;;;;;;;;;;5057726;28;19926;-90
2023/06/09 03:42:42;;;;;;;;;;;;;;;;;;5057643;28;19993;-89
2023/06/09 03:45:08;;;;;;;;;;;;;;;;;;5057886;28;20408;-90
2023/06/09 03:47:33;;;;;;;;;;;;;;;;;;5074533;28;19920;-89
2023/06/09 03:49:59;;;;;;;;;;;;;;;;;;5057732;28;20369;-90
2023/06/09 03:52:25;;;;;;;;;;;;;;;;;;5077882;28;19934;-87
2023/06/09 03:54:51;;;;;;;;;;;;;;;;;;5115552;28;19926;-91
2023/06/09 03:57:17;;;;;;;;;;;;;;;;;;5114773;28;19924;-90
2023/06/09 03:59:43;;;;;;;;;;;;;;;;;;5115283;28;19927;-87
2023/06/09 04:02:09;;;;;;;;;;;;;;;;;;5096867;28;19924;-91
2023/06/09 04:04:35;;;;;;;;;;;;;;;;;;5076766;28;19920;-90
2023/06/09 04:07:01;;;;;;;;;;;;;;;;;;5077646;28;19931;-90
2023/06/09 04:09:27;;;;;;;;;;;;;;;;;;5061852;28;19920;-90
2023/06/09 04:11:53;;;;;;;;;;;;;;;;;;5097678;28;19920;-90
2023/06/09 04:14:19;;;;;;;;;;;;;;;;;;5111674;28;19926;-91
2023/06/09 04:16:45;;;;;;;;;;;;;;;;;;5060934;28;19920;-89
2023/06/09 04:19:11;;;;;;;;;;;;;;;;;;5060716;28;19932;-91
2023/06/09 04:21:37;;;;;;;;;;;;;;;;;;5060377;28;19935;-91
2023/06/09 04:24:02;;;;;;;;;;;;;;;;;;5077222;28;20269;-89
2023/06/09 04:26:29;;;;;;;;;;;;;;;;;;5111039;28;19920;-89
2023/06/09 04:28:55;;;;;;;;;;;;;;;;;;5060461;28;19920;-89
2023/06/09 04:31:24;;;;;;;;;;;;;;;;;;5060345;28;19924;-90
2023/06/09 04:33:51;;;;;;;;;;;;;;;;;;5110684;28;19973;-90
2023/06/09 04:36:17;;;;;;;;;;;;;;;;;;5110907;28;19924;-89
2023/06/09 04:38:45;;;;;;;;;;;;;;;;;;5079403;28;20551;-89
2023/06/09 04:41:11;;;;;;;;;;;;;;;;;;5080421;28;19959;-90
2023/06/09 04:43:39;;;;;;;;;;;;;;;;;;5101319;28;19989;-89
2023/06/09 04:46:05;;;;;;;;;;;;;;;;;;5097135;28;19935;-90
2023/06/09 04:48:33;;;;;;;;;;;;;;;;;;5094805;28;19920;-88
2023/06/09 04:51:00;;;;;;;;;;;;;;;;;;5110462;28;20400;-89
2023/06/09 04:53:26;;;;;;;;;;;;;;;;;;5059935;28;20343;-89
2023/06/09 04:55:53;;;;;;;;;;;;;;;;;;5060135;28;20579;-91
2023/06/09 04:58:19;;;;;;;;;;;;;;;;;;5059898;28;19939;-89
2023/06/09 05:00:45;;;;;;;;;;;;;;;;;;5060033;28;19920;-87
2023/06/09 05:03:17;;;;;;;;;;;;;;;;;;5059141;28;19924;-90
2023/06/09 05:05:42;;;;;;;;;;;;;;;;;;5056520;28;19927;-89
2023/06/09 05:08:09;;;;;;;;;;;;;;;;;;5059851;28;19920;-90
2023/06/09 05:10:35;;;;;;;;;;;;;;;;;;5059535;28;19920;-89
2023/06/09 05:13:01;;;;;;;;;;;;;;;;;;5076400;28;19930;-90
2023/06/09 05:15:27;;;;;;;;;;;;;;;;;;5059836;28;19945;-91
2023/06/09 05:17:53;;;;;;;;;;;;;;;;;;5059628;28;19969;-91
2023/06/09 05:20:19;;;;;;;;;;;;;;;;;;5059041;28;19924;-91
2023/06/09 05:22:45;;;;;;;;;;;;;;;;;;5109862;28;20335;-90
2023/06/09 05:25:13;;;;;;;;;;;;;;;;;;5076430;28;19924;-90
2023/06/09 05:27:39;;;;;;;;;;;;;;;;;;5059601;28;19982;-90
2023/06/09 05:30:05;;;;;;;;;;;;;;;;;;5058957;28;20300;-90
2023/06/09 05:32:31;;;;;;;;;;;;;;;;;;5059576;28;20415;-90
2023/06/09 05:34:57;;;;;;;;;;;;;;;;;;5059189;28;19920;-90
2023/06/09 05:37:23;;;;;;;;;;;;;;;;;;5059023;28;19967;-90
2023/06/09 05:39:48;;;;;;;;;;;;;;;;;;5075543;28;20002;-91
2023/06/09 05:42:15;;;;;;;;;;;;;;;;;;5058924;28;19935;-88
2023/06/09 05:44:41;;;;;;;;;;;;;;;;;;5059106;28;19989;-89
2023/06/09 05:47:06;;;;;;;;;;;;;;;;;;5058986;28;20457;-89
2023/06/09 05:49:34;;;;;;;;;;;;;;;;;;5058694;28;19921;-91
2023/06/09 05:52:00;;;;;;;;;;;;;;;;;;5058647;28;20009;-91
2023/06/09 05:54:26;;;;;;;;;;;;;;;;;;5058816;28;19924;-90
2023/06/09 05:56:53;;;;;;;;;;;;;;;;;;5058836;28;20385;-89
2023/06/09 05:59:20;;;;;;;;;;;;;;;;;;5075440;28;19924;-88
2023/06/09 06:01:46;;;;;;;;;;;;;;;;;;5058548;28;19928;-90
2023/06/09 06:04:12;;;;;;;;;;;;;;;;;;5058632;28;19920;-90
2023/06/09 06:06:38;;;;;;;;;;;;;;;;;;5058812;28;20377;-89
2023/06/09 06:09:04;;;;;;;;;;;;;;;;;;5109170;28;19927;-91
2023/06/09 06:11:31;;;;;;;;;;;;;;;;;;5108944;28;20395;-91
2023/06/09 06:13:56;;;;;;;;;;;;;;;;;;5058670;28;19977;-90
2023/06/09 06:16:22;;;;;;;;;;;;;;;;;;5058322;28;19927;-90
2023/06/09 06:18:48;;;;;;;;;;;;;;;;;;5058202;28;19924;-90
2023/06/09 06:21:14;;;;;;;;;;;;;;;;;;5108883;28;19928;-91
2023/06/09 06:23:40;;;;;;;;;;;;;;;;;;5058417;28;20030;-90
2023/06/09 06:26:06;;;;;;;;;;;;;;;;;;5058537;28;20006;-91
2023/06/09 06:28:32;;;;;;;;;;;;;;;;;;5058423;28;20390;-90
2023/06/09 06:30:58;;;;;;;;;;;;;;;;;;5058135;28;19935;-89
2023/06/09 06:33:24;;;;;;;;;;;;;;;;;;5058109;28;19920;-89
2023/06/09 06:35:50;;;;;;;;;;;;;;;;;;5104375;28;19977;-88
2023/06/09 06:38:16;;;;;;;;;;;;;;;;;;5058313;28;19920;-90
2023/06/09 06:40:45;;;;;;;;;;;;;;;;;;5074677;28;20388;-91
2023/06/09 06:43:11;;;;;;;;;;;;;;;;;;5058306;28;19931;-90
2023/06/09 06:45:37;;;;;;;;;;;;;;;;;;5057788;28;20526;-90
2023/06/09 06:48:03;;;;;;;;;;;;;;;;;;5057220;28;19927;-91
2023/06/09 06:50:29;;;;;;;;;;;;;;;;;;5090568;28;20292;-91
2023/06/09 06:52:54;;;;;;;;;;;;;;;;;;5074192;28;20447;-90
2023/06/09 06:55:20;;;;;;;;;;;;;;;;;;5091179;28;20380;-90
2023/06/09 06:57:46;;;;;;;;;;;;;;;;;;5074413;28;19920;-90
2023/06/09 07:00:14;;;;;;;;;;;;;;;;;;5091013;28;19920;-91
2023/06/09 07:02:40;;;;;;;;;;;;;;;;;;5057368;28;19924;-91
2023/06/09 07:05:06;;;;;;;;;;;;;;;;;;5057564;28;19928;-90
2023/06/09 07:07:32;;;;;;;;;;;;;;;;;;5057487;28;19920;-91
2023/06/09 07:09:58;;;;;;;;;;;;;;;;;;5057519;28;19931;-91
2023/06/09 07:12:24;;;;;;;;;;;;;;;;;;5057406;28;19920;-91
2023/06/09 07:14:50;;;;;;;;;;;;;;;;;;5074071;28;20185;-90
2023/06/09 07:17:16;;;;;;;;;;;;;;;;;;5074058;28;19963;-91
2023/06/09 07:19:42;;;;;;;;;;;;;;;;;;5074191;28;19941;-90
2023/06/09 07:22:08;;;;;;;;;;;;;;;;;;5053524;28;19928;-90
2023/06/09 07:24:34;;;;;;;;;;;;;;;;;;5114558;28;19919;-89
2023/06/09 07:27:00;;;;;;;;;;;;;;;;;;5064142;28;19997;-91
2023/06/09 07:29:27;;;;;;;;;;;;;;;;;;5095906;28;19928;-89
2023/06/09 07:31:53;;;;;;;;;;;;;;;;;;5086067;28;19919;-90
2023/06/09 07:34:18;;;;;;;;;;;;;;;;;;5086981;28;19939;-90
2023/06/09 07:36:50;;;;;;;;;;;;;;;;;;5087438;28;20381;-91
2023/06/09 07:39:16;;;;;;;;;;;;;;;;;;5106348;28;19920;-90
2023/06/09 07:41:42;;;;;;;;;;;;;;;;;;5072697;28;19924;-92
2023/06/09 07:44:08;;;;;;;;;;;;;;;;;;5064571;28;19987;-87
2023/06/09 07:46:34;;;;;;;;;;;;;;;;;;5093835;28;19954;-86
2023/06/09 07:49:00;;;;;;;;;;;;;;;;;;5065190;28;19920;-87
2023/06/09 07:51:26;;;;;;;;;;;;;;;;;;5110583;28;20327;-88
2023/06/09 07:53:52;;;;;;;;;;;;;;;;;;5076955;28;19926;-86
2023/06/09 07:56:18;;;;;;;;;;;;;;;;;;5106908;28;20007;-86
2023/06/09 07:58:46;;;;;;;;;;;;;;;;;;5059934;28;20399;-87
2023/06/09 08:01:11;;;;;;;;;;;;;;;;;;5061584;28;20006;-86
2023/06/09 08:03:37;;;;;;;;;;;;;;;;;;5059698;28;19971;-87
2023/06/09 08:06:03;;;;;;;;;;;;;;;;;;5107600;28;20015;-87
2023/06/09 08:08:31;;;;;;;;;;;;;;;;;;5080164;28;19928;-87
2023/06/09 08:10:57;;;;;;;;;;;;;;;;;;5064146;28;19927;-85
2023/06/09 08:13:23;;;;;;;;;;;;;;;;;;5066588;28;20432;-86
2023/06/09 08:15:49;;;;;;;;;;;;;;;;;;5083839;28;19926;-86
2023/06/09 08:18:15;;;;;;;;;;;;;;;;;;5094600;28;20380;-86
2023/06/09 08:20:41;;;;;;;;;;;;;;;;;;5067922;28;19967;-87
2023/06/09 08:23:10;;;;;;;;;;;;;;;;;;5065271;28;20400;-87
2023/06/09 08:25:37;;;;;;;;;;;;;;;;;;5075455;28;20381;-87
2023/06/09 08:28:02;;;;;;;;;;;;;;;;;;5065889;28;20010;-87
2023/06/09 08:30:28;;;;;;;;;;;;;;;;;;5104654;27;20007;-86
2023/06/09 08:32:54;;;;;;;;;;;;;;;;;;5076364;28;20385;-87
2023/06/09 08:35:21;;;;;;;;;;;;;;;;;;5093375;28;19928;-87
2023/06/09 08:37:47;;;;;;;;;;;;;;;;;;5058700;28;19924;-87
2023/06/09 08:40:13;;;;;;;;;;;;;;;;;;5108334;28;19920;-86
2023/06/09 08:42:39;;;;;;;;;;;;;;;;;;5075269;28;19977;-87
2023/06/09 08:45:05;;;;;;;;;;;;;;;;;;5058723;28;19920;-87
2023/06/09 08:47:32;;;;;;;;;;;;;;;;;;5059140;28;19928;-86
2023/06/09 08:49:59;;;;;;;;;;;;;;;;;;5094401;28;19982;-87
2023/06/09 08:52:25;;;;;;;;;;;;;;;;;;5087780;28;19961;-88
2023/06/09 08:54:51;;;;;;;;;;;;;;;;;;5086610;28;19924;-88
2023/06/09 08:57:17;;;;;;;;;;;;;;;;;;5092830;28;19950;-88
2023/06/09 08:59:44;;;;;;;;;;;;;;;;;;5069590;28;20400;-86
2023/06/09 09:02:10;;;;;;;;;;;;;;;;;;5071168;28;19923;-87
2023/06/09 09:04:38;;;;;;;;;;;;;;;;;;5069746;28;20272;-87
2023/06/09 09:07:04;;;;;;;;;;;;;;;;;;5109957;28;19927;-87
2023/06/09 09:09:30;;;;;;;;;;;;;;;;;;5070411;28;20326;-86
2023/06/09 09:11:56;;;;;;;;;;;;;;;;;;5068970;28;19946;-86
2023/06/09 09:14:22;;;;;;;;;;;;;;;;;;5068017;28;19927;-87
2023/06/09 09:16:48;;;;;;;;;;;;;;;;;;5062375;28;20284;-87
2023/06/09 09:19:14;;;;;;;;;;;;;;;;;;5090182;28;19927;-87
2023/06/09 09:21:40;;;;;;;;;;;;;;;;;;5056985;28;19925;-87
2023/06/09 09:24:11;;;;;;;;;;;;;;;;;;5075423;28;20265;-87
2023/06/09 09:26:38;;;;;;;;;;;;;;;;;;5078662;28;19920;-87
2023/06/09 09:29:05;;;;;;;;;;;;;;;;;;5061625;28;19927;-87
2023/06/09 09:31:32;;;;;;;;;;;;;;;;;;5075818;28;19985;-87
2023/06/09 09:33:58;;;;;;;;;;;;;;;;;;5058132;28;20280;-88
2023/06/09 09:36:24;;;;;;;;;;;;;;;;;;5063607;28;19920;-88
2023/06/09 09:38:50;;;;;;;;;;;;;;;;;;5091330;28;20332;-86
2023/06/09 09:41:16;;;;;;;;;;;;;;;;;;5108223;27;20057;-87
2023/06/09 09:43:42;;;;;;;;;;;;;;;;;;5086529;28;19920;-86
2023/06/09 09:46:08;;;;;;;;;;;;;;;;;;5083175;28;19928;-87
2023/06/09 09:48:35;;;;;;;;;;;;;;;;;;5066788;28;19920;-86
2023/06/09 09:51:00;;;;;;;;;;;;;;;;;;5069790;28;19924;-87
2023/06/09 09:53:26;;;;;;;;;;;;;;;;;;5107962;28;19920;-86
2023/06/09 09:55:53;;;;;;;;;;;;;;;;;;5106855;28;19964;-87
2023/06/09 09:58:18;;;;;;;;;;;;;;;;;;5088427;28;19924;-87
2023/06/09 10:00:46;;;;;;;;;;;;;;;;;;5074600;28;20399;-87
2023/06/09 10:03:12;;;;;;;;;;;;;;;;;;5058165;28;19946;-87
2023/06/09 10:05:39;;;;;;;;;;;;;;;;;;5109078;28;19923;-87
2023/06/09 10:08:09;;;;;;;;;;;;;;;;;;5071640;28;20015;-86
2023/06/09 10:10:35;;;;;;;;;;;;;;;;;;5091144;28;19919;-87
2023/06/09 10:13:03;;;;;;;;;;;;;;;;;;5067533;28;20372;-86
2023/06/09 10:15:28;;;;;;;;;;;;;;;;;;5071970;28;20337;-87
2023/06/09 10:17:54;;;;;;;;;;;;;;;;;;5061421;28;19968;-87
2023/06/09 10:20:21;;;;;;;;;;;;;;;;;;5107320;28;19977;-87
2023/06/09 10:22:47;;;;;;;;;;;;;;;;;;5090643;28;19935;-87
2023/06/09 10:25:13;;;;;;;;;;;;;;;;;;5079575;28;19919;-87
2023/06/09 10:27:39;;;;;;;;;;;;;;;;;;5064893;28;20415;-87
2023/06/09 10:30:05;;;;;;;;;;;;;;;;;;5073386;28;20341;-87
2023/06/09 10:32:31;;;;;;;;;;;;;;;;;;5074319;28;20018;-87
2023/06/09 10:34:57;;;;;;;;;;;;;;;;;;5108475;28;19974;-87
2023/06/09 10:37:23;;;;;;;;;;;;;;;;;;5057803;28;19924;-87
2023/06/09 10:39:49;;;;;;;;;;;;;;;;;;5058495;28;20265;-86
2023/06/09 10:42:15;;;;;;;;;;;;;;;;;;5074395;28;19928;-86
2023/06/09 10:44:41;;;;;;;;;;;;;;;;;;5090256;28;20014;-87
2023/06/09 10:47:08;;;;;;;;;;;;;;;;;;5074875;28;20313;-87
2023/06/09 10:49:39;;;;;;;;;;;;;;;;;;5056987;28;19959;-87
2023/06/09 10:52:05;;;;;;;;;;;;;;;;;;5090435;28;19971;-87
2023/06/09 10:54:32;;;;;;;;;;;;;;;;;;5056630;28;20389;-88
2023/06/09 10:57:00;;;;;;;;;;;;;;;;;;5091965;28;19962;-87
2023/06/09 10:59:26;;;;;;;;;;;;;;;;;;5111390;28;19928;-89
2023/06/09 11:01:51;;;;;;;;;;;;;;;;;;5090876;28;19973;-89
2023/06/09 11:04:17;;;;;;;;;;;;;;;;;;5078212;28;19920;-88
2023/06/09 11:06:43;;;;;;;;;;;;;;;;;;5061597;28;19973;-89
2023/06/09 11:09:09;;;;;;;;;;;;;;;;;;5095048;28;19920;-90
2023/06/09 11:11:35;;;;;;;;;;;;;;;;;;5061305;28;19949;-89
2023/06/09 11:14:01;;;;;;;;;;;;;;;;;;5077944;28;19924;-91
2023/06/09 11:16:27;;;;;;;;;;;;;;;;;;5112539;28;20380;-90
2023/06/09 11:18:53;;;;;;;;;;;;;;;;;;5095202;28;19920;-89
2023/06/09 11:21:20;;;;;;;;;;;;;;;;;;5061044;28;19924;-89
2023/06/09 11:23:46;;;;;;;;;;;;;;;;;;5094886;28;19966;-89
2023/06/09 11:26:12;;;;;;;;;;;;;;;;;;5094846;28;20445;-90
2023/06/09 11:28:38;;;;;;;;;;;;;;;;;;5111828;28;19920;-89
2023/06/09 11:31:04;;;;;;;;;;;;;;;;;;5094545;28;20381;-90
2023/06/09 11:33:29;;;;;;;;;;;;;;;;;;5060786;28;19924;-90
2023/06/09 11:35:55;;;;;;;;;;;;;;;;;;5094358;28;19942;-89
2023/06/09 11:38:22;;;;;;;;;;;;;;;;;;5060963;28;20376;-90
2023/06/09 11:40:48;;;;;;;;;;;;;;;;;;5094427;28;19939;-89
2023/06/09 11:43:14;;;;;;;;;;;;;;;;;;5095686;28;20285;-88
2023/06/09 11:45:40;;;;;;;;;;;;;;;;;;5087793;28;20241;-88
2023/06/09 11:48:06;;;;;;;;;;;;;;;;;;5080875;28;19920;-89
2023/06/09 11:50:32;;;;;;;;;;;;;;;;;;5066762;28;19927;-86
2023/06/09 11:52:58;;;;;;;;;;;;;;;;;;5066226;28;19963;-87
2023/06/09 11:55:23;;;;;;;;;;;;;;;;;;5062871;28;20440;-87
2023/06/09 11:57:49;;;;;;;;;;;;;;;;;;5094022;28;19920;-86
2023/06/09 12:00:17;;;;;;;;;;;;;;;;;;5061685;28;20300;-87
2023/06/09 12:02:45;;;;;;;;;;;;;;;;;;5100671;28;20288;-87
2023/06/09 12:05:11;;;;;;;;;;;;;;;;;;5060149;28;20627;-89
2023/06/09 12:07:37;;;;;;;;;;;;;;;;;;5076745;28;19924;-87
2023/06/09 12:10:04;;;;;;;;;;;;;;;;;;5076849;28;20288;-86
2023/06/09 12:12:30;;;;;;;;;;;;;;;;;;5059118;28;19926;-87
2023/06/09 12:14:56;;;;;;;;;;;;;;;;;;5061311;28;20014;-86
2023/06/09 12:17:21;;;;;;;;;;;;;;;;;;5067377;28;19924;-87
2023/06/09 12:19:48;;;;;;;;;;;;;;;;;;5060551;28;20281;-86
2023/06/09 12:22:14;;;;;;;;;;;;;;;;;;5059794;28;19964;-86
2023/06/09 12:24:40;;;;;;;;;;;;;;;;;;5059408;28;19963;-89
2023/06/09 12:27:06;;;;;;;;;;;;;;;;;;5112360;27;19920;-89
2023/06/09 12:29:32;;;;;;;;;;;;;;;;;;5079489;28;19979;-89
2023/06/09 12:31:58;;;;;;;;;;;;;;;;;;5059961;28;19924;-87
2023/06/09 12:34:24;;;;;;;;;;;;;;;;;;5060357;28;20003;-87
2023/06/09 12:36:50;;;;;;;;;;;;;;;;;;5081877;28;19920;-88
2023/06/09 12:39:16;;;;;;;;;;;;;;;;;;5079744;28;19923;-88
2023/06/09 12:41:42;;;;;;;;;;;;;;;;;;5059780;28;19928;-88
2023/06/09 12:44:08;;;;;;;;;;;;;;;;;;5067134;28;19924;-88
2023/06/09 12:46:34;;;;;;;;;;;;;;;;;;5098813;28;19920;-88
2023/06/09 12:49:03;;;;;;;;;;;;;;;;;;5083355;28;20465;-88
2023/06/09 12:51:29;;;;;;;;;;;;;;;;;;5066828;28;19926;-89
2023/06/09 12:53:55;;;;;;;;;;;;;;;;;;5100498;28;20007;-90
2023/06/09 12:56:20;;;;;;;;;;;;;;;;;;5114888;27;19966;-89
2023/06/09 12:58:47;;;;;;;;;;;;;;;;;;5062327;28;19920;-89
2023/06/09 13:01:13;;;;;;;;;;;;;;;;;;5066355;28;20331;-89
2023/06/09 13:03:38;;;;;;;;;;;;;;;;;;5093679;28;19924;-90
2023/06/09 13:06:05;;;;;;;;;;;;;;;;;;5096013;28;19920;-90
2023/06/09 13:08:30;;;;;;;;;;;;;;;;;;5102074;28;20316;-90
2023/06/09 13:10:56;;;;;;;;;;;;;;;;;;5097591;28;19969;-91
2023/06/09 13:13:22;;;;;;;;;;;;;;;;;;5067314;28;19920;-90
2023/06/09 13:15:48;;;;;;;;;;;;;;;;;;5083290;28;19971;-90
2023/06/09 13:18:15;;;;;;;;;;;;;;;;;;5101896;28;19987;-92
2023/06/09 13:20:40;;;;;;;;;;;;;;;;;;5081015;28;20341;-92
2023/06/09 13:23:06;;;;;;;;;;;;;;;;;;5098636;28;19962;-91
2023/06/09 13:25:34;;;;;;;;;;;;;;;;;;5063663;28;19920;-92
2023/06/09 13:28:00;;;;;;;;;;;;;;;;;;5081458;28;19931;-90
2023/06/09 13:30:26;;;;;;;;;;;;;;;;;;5059757;28;19928;-91
2023/06/09 13:32:52;;;;;;;;;;;;;;;;;;5095679;28;20407;-90
2023/06/09 13:35:18;;;;;;;;;;;;;;;;;;5078928;28;20003;-89
2023/06/09 13:37:43;;;;;;;;;;;;;;;;;;5059187;28;19965;-91
2023/06/09 13:40:09;;;;;;;;;;;;;;;;;;5058849;28;19920;-89
2023/06/09 13:42:35;;;;;;;;;;;;;;;;;;5092832;28;20274;-90
2023/06/09 13:45:01;;;;;;;;;;;;;;;;;;5075652;28;19939;-91
2023/06/09 13:47:27;;;;;;;;;;;;;;;;;;5057743;28;19946;-90
2023/06/09 13:49:54;;;;;;;;;;;;;;;;;;5059551;28;19920;-90
2023/06/09 13:52:20;;;;;;;;;;;;;;;;;;5074808;28;19949;-90
2023/06/09 13:54:48;;;;;;;;;;;;;;;;;;5058341;28;19920;-90
2023/06/09 13:57:14;;;;;;;;;;;;;;;;;;5058176;28;19927;-88
2023/06/09 13:59:40;;;;;;;;;;;;;;;;;;5058863;28;20296;-88
2023/06/09 14:02:06;;;;;;;;;;;;;;;;;;5057393;28;19936;-89
2023/06/09 14:04:32;;;;;;;;;;;;;;;;;;5058329;28;19928;-89
2023/06/09 14:06:58;;;;;;;;;;;;;;;;;;5058511;28;19920;-90
2023/06/09 14:09:24;;;;;;;;;;;;;;;;;;5069313;28;19943;-89
2023/06/09 14:11:50;;;;;;;;;;;;;;;;;;5056718;28;19924;-90
2023/06/09 14:14:16;;;;;;;;;;;;;;;;;;5056091;28;19920;-90
2023/06/09 14:16:43;;;;;;;;;;;;;;;;;;5057708;28;19923;-89
2023/06/09 14:19:09;;;;;;;;;;;;;;;;;;5064087;28;19937;-90
2023/06/09 14:21:35;;;;;;;;;;;;;;;;;;5090512;28;19924;-90
2023/06/09 14:24:05;;;;;;;;;;;;;;;;;;5090186;28;20027;-90
2023/06/09 14:26:31;;;;;;;;;;;;;;;;;;5058318;28;20065;-89
2023/06/09 14:28:57;;;;;;;;;;;;;;;;;;5056870;28;19920;-91
2023/06/09 14:31:23;;;;;;;;;;;;;;;;;;5056398;28;20445;-90
2023/06/09 14:33:49;;;;;;;;;;;;;;;;;;5067649;28;19974;-91
2023/06/09 14:36:15;;;;;;;;;;;;;;;;;;5096274;28;19973;-91
2023/06/09 14:38:42;;;;;;;;;;;;;;;;;;5059089;28;20373;-90
2023/06/09 14:41:07;;;;;;;;;;;;;;;;;;5059562;28;20373;-90
2023/06/09 14:43:33;;;;;;;;;;;;;;;;;;5072459;28;19925;-89
2023/06/09 14:45:59;;;;;;;;;;;;;;;;;;5073948;28;19927;-90
2023/06/09 14:48:25;;;;;;;;;;;;;;;;;;5059857;28;19995;-91
2023/06/09 14:50:51;;;;;;;;;;;;;;;;;;5090421;28;19928;-90
2023/06/09 14:53:17;;;;;;;;;;;;;;;;;;5057409;28;19920;-89
2023/06/09 14:55:43;;;;;;;;;;;;;;;;;;5091451;28;19931;-89
2023/06/09 14:58:09;;;;;;;;;;;;;;;;;;5062339;28;19920;-90
2023/06/09 15:00:35;;;;;;;;;;;;;;;;;;5107747;28;19943;-91
2023/06/09 15:03:01;;;;;;;;;;;;;;;;;;5057563;28;20014;-90
2023/06/09 15:05:27;;;;;;;;;;;;;;;;;;5058857;28;19986;-89
2023/06/09 15:07:56;;;;;;;;;;;;;;;;;;5104238;28;19924;-90
2023/06/09 15:10:22;;;;;;;;;;;;;;;;;;5090915;28;19931;-89
2023/06/09 15:12:49;;;;;;;;;;;;;;;;;;5057610;28;20384;-91
2023/06/09 15:15:15;;;;;;;;;;;;;;;;;;5057420;28;19921;-90
2023/06/09 15:17:41;;;;;;;;;;;;;;;;;;5057460;28;19934;-90
2023/06/09 15:20:06;;;;;;;;;;;;;;;;;;5107539;28;20373;-91
2023/06/09 15:22:37;;;;;;;;;;;;;;;;;;5090824;28;19981;-89
2023/06/09 15:25:03;;;;;;;;;;;;;;;;;;5057601;28;19920;-90
2023/06/09 15:27:29;;;;;;;;;;;;;;;;;;5059307;28;20010;-92
2023/06/09 15:29:55;;;;;;;;;;;;;;;;;;5057455;28;19927;-91
2023/06/09 15:32:21;;;;;;;;;;;;;;;;;;5074553;28;20011;-90
2023/06/09 15:34:47;;;;;;;;;;;;;;;;;;5060288;28;19988;-90
2023/06/09 15:37:14;;;;;;;;;;;;;;;;;;5074085;28;19921;-90
2023/06/09 15:39:40;;;;;;;;;;;;;;;;;;5057495;28;19920;-90
2023/06/09 15:42:08;;;;;;;;;;;;;;;;;;5056916;28;19924;-89
2023/06/09 15:44:35;;;;;;;;;;;;;;;;;;5057375;28;19920;-90
2023/06/09 15:47:00;;;;;;;;;;;;;;;;;;5057417;28;19920;-92
2023/06/09 15:49:26;;;;;;;;;;;;;;;;;;5063019;28;20075;-90
2023/06/09 15:51:52;;;;;;;;;;;;;;;;;;5078212;28;19969;-90
2023/06/09 15:54:18;;;;;;;;;;;;;;;;;;5060838;28;19919;-92
2023/06/09 15:56:44;;;;;;;;;;;;;;;;;;5060983;28;19927;-90
2023/06/09 15:59:10;;;;;;;;;;;;;;;;;;5111758;28;20010;-91
2023/06/09 16:01:36;;;;;;;;;;;;;;;;;;5063215;28;20007;-93
2023/06/09 16:04:02;;;;;;;;;;;;;;;;;;5060881;28;19955;-89
2023/06/09 16:06:28;;;;;;;;;;;;;;;;;;5106952;28;19920;-90
2023/06/09 16:08:54;;;;;;;;;;;;;;;;;;5077984;28;19943;-90
2023/06/09 16:11:20;;;;;;;;;;;;;;;;;;5077231;28;19928;-91
2023/06/09 16:13:46;;;;;;;;;;;;;;;;;;5077282;28;19990;-90
2023/06/09 16:16:12;;;;;;;;;;;;;;;;;;5060604;28;20418;-91
2023/06/09 16:18:38;;;;;;;;;;;;;;;;;;5060291;28;19970;-89
2023/06/09 16:21:04;;;;;;;;;;;;;;;;;;5060755;28;19920;-91
2023/06/09 16:23:30;;;;;;;;;;;;;;;;;;5060249;28;19924;-90
2023/06/09 16:25:56;;;;;;;;;;;;;;;;;;5060461;28;19920;-88
2023/06/09 16:28:22;;;;;;;;;;;;;;;;;;5060895;28;20384;-91
2023/06/09 16:30:48;;;;;;;;;;;;;;;;;;5060027;28;20297;-89
2023/06/09 16:33:14;;;;;;;;;;;;;;;;;;5059913;28;19931;-90
2023/06/09 16:35:40;;;;;;;;;;;;;;;;;;5060239;28;20178;-90
2023/06/09 16:38:06;;;;;;;;;;;;;;;;;;5080059;28;20361;-90